CPX304 Details

Departure: Tokyo-Narita International Airport (RJAA)
Arrival: Guam International Airport (PGUM)
Route: CUPID Y820 SUNNS Y820 ADKAK G223 DAGDA A337 NOGAK A337 TEGOD G205 GUYES


Current Weather Information
RJAA 252330Z VRB02KT 8000 -RA FEW030 BKN050 10/08 Q1013 BECMG 34005KT RMK 1CU030 7SC050 A2993
PGUM 252254Z 09012KT 10SM SCT017 BKN085 27/24 A3003 RMK AO2 SLP160 T02720239